Atherton, Indiana
Current Conditions -  °F | °C
As of 1:10 PM on Sunday 25 Jan 2015 (Local Time) from KHUF Reporting Station
Haze Haze  
Wind Chill: 33°   Ceiling: 1100
Heat Index: 38°   Visibility: 2mi
Dew Point: 36°   Wind: 6mph
Humidity: 93%   Direction: 110°ESE
Pressure: 29.62"   Gusts: NA
Location:  39.6386°N, 87.3045°W
Report Text: KHUF 251810Z 11005KT 2SM BR SCT005 OVC011 03/02 A2962 RMK AO2 T00330022
Loading
Personal Weather Stations






























Interactive Weather Map New forecast layout! Learn more

10-Day Weather Forecast

Advertisements
Track Severe Weather on mobile